Time;durP1;ratioP1;P1;durP2;ratioP2;P2;SDS_P1;SDS_P2;PMS_P1;PMS_P2;Temp;Humidity;BMP_temperature;BMP_pressure;BME280_temperature;BME280_humidity;BME280_pressure;Samples;Min_cycle;Max_cycle;Signal;HPM_P1;HPM_P2
2021/10/30 00:01:52;;;;;;;17.88;10.52;;;;;;;6.23;84.46;95400.72;5071601;28;20123;-56
2021/10/30 00:04:19;;;;;;;13.07;9.98;;;;;;;6.19;83.98;95404.38;5071249;28;20474;-56
2021/10/30 00:06:46;;;;;;;14.05;8.98;;;;;;;6.27;83.08;95393.63;5071994;28;20079;-56
2021/10/30 00:09:13;;;;;;;18.60;9.52;;;;;;;6.23;83.50;95397.25;5062647;28;20045;-54
2021/10/30 00:11:39;;;;;;;25.75;9.68;;;;;;;6.18;83.72;95392.84;5065790;28;20068;-55
2021/10/30 00:14:06;;;;;;;13.18;8.93;;;;;;;6.49;82.65;95394.53;5071137;28;20087;-53
2021/10/30 00:16:33;;;;;;;12.68;8.95;;;;;;;6.47;81.97;95399.47;5066119;28;20120;-51
2021/10/30 00:19:00;;;;;;;17.50;9.20;;;;;;;6.31;82.43;95389.19;5052009;28;20144;-55
2021/10/30 00:21:28;;;;;;;60.03;9.80;;;;;;;6.23;82.88;95383.81;5051571;28;20045;-51
2021/10/30 00:23:56;;;;;;;12.43;8.48;;;;;;;6.01;83.59;95374.84;5050904;28;20051;-51
2021/10/30 00:26:22;;;;;;;13.32;8.48;;;;;;;6.02;83.33;95378.31;5059254;28;20551;-55
2021/10/30 00:28:49;;;;;;;30.17;9.63;;;;;;;5.33;86.43;95389.69;5071806;28;20044;-50
2021/10/30 00:31:16;;;;;;;50.30;10.65;;;;;;;5.35;88.07;95382.16;5065424;28;20048;-52
2021/10/30 00:33:43;;;;;;;19.10;10.23;;;;;;;5.60;86.57;95392.16;5070930;28;20045;-52
2021/10/30 00:36:10;;;;;;;15.02;9.27;;;;;;;5.36;87.41;95395.25;5069811;28;20044;-50
2021/10/30 00:38:37;;;;;;;17.13;9.48;;;;;;;4.84;90.07;95391.56;5051392;28;20157;-52
2021/10/30 00:41:09;;;;;;;18.52;9.75;;;;;;;4.97;90.26;95371.91;5063283;28;20049;-51
2021/10/30 00:43:37;;;;;;;12.07;9.00;;;;;;;5.19;89.10;95389.03;5070359;28;20032;-52
2021/10/30 00:46:04;;;;;;;13.35;9.13;;;;;;;5.42;87.70;95387.06;5067653;28;20473;-55
2021/10/30 00:48:31;;;;;;;12.40;8.82;;;;;;;4.90;89.60;95377.72;5051525;28;20390;-50
2021/10/30 00:50:59;;;;;;;11.43;8.95;;;;;;;5.31;88.41;95381.97;5055039;28;20493;-56
2021/10/30 00:53:31;;;;;;;13.70;8.35;;;;;;;5.83;85.28;95370.53;5070589;28;20043;-55
2021/10/30 00:56:00;;;;;;;28.00;9.48;;;;;;;5.91;85.27;95382.38;5069935;28;20037;-54
2021/10/30 00:58:34;;;;;;;11.23;9.32;;;;;;;5.95;84.43;95388.75;5069360;28;20457;-56
2021/10/30 01:01:04;;;;;;;14.65;8.88;;;;;;;5.81;85.22;95381.56;5063928;28;20443;-51
2021/10/30 01:03:33;;;;;;;25.52;9.02;;;;;;;5.98;84.75;95385.41;5070800;28;20500;-54
2021/10/30 01:06:00;;;;;;;16.73;9.07;;;;;;;6.09;83.96;95371.34;5069804;28;20060;-53
2021/10/30 01:08:28;;;;;;;52.88;10.63;;;;;;;6.20;83.99;95363.75;5067983;28;20109;-53
2021/10/30 01:10:55;;;;;;;16.02;9.30;;;;;;;5.97;83.90;95365.03;5052400;28;20045;-58
2021/10/30 01:13:23;;;;;;;20.13;9.75;;;;;;;6.13;84.24;95365.34;5070453;28;20042;-54
2021/10/30 01:15:50;;;;;;;18.77;8.75;;;;;;;5.95;83.83;95359.22;5070800;28;20110;-57
2021/10/30 01:18:17;;;;;;;42.13;10.15;;;;;;;5.42;86.45;95354.84;5056689;28;20040;-55
2021/10/30 01:20:45;;;;;;;21.63;9.15;;;;;;;5.07;88.54;95350.22;5066459;28;20225;-57
2021/10/30 01:23:12;;;;;;;11.90;8.23;;;;;;;5.20;88.59;95347.69;5070401;28;20042;-53
2021/10/30 01:25:39;;;;;;;11.63;8.80;;;;;;;5.28;88.43;95355.78;5069843;28;20145;-57
2021/10/30 01:28:06;;;;;;;9.88;8.45;;;;;;;5.35;87.96;95352.63;5069855;28;20140;-51
2021/10/30 01:30:34;;;;;;;25.52;10.05;;;;;;;4.98;89.71;95344.03;5063369;28;20106;-57
2021/10/30 01:33:04;;;;;;;17.92;9.23;;;;;;;4.67;91.33;95344.06;5053777;28;20064;-54
2021/10/30 01:35:35;;;;;;;15.95;8.80;;;;;;;4.35;93.33;95337.91;5071016;28;20426;-58
2021/10/30 01:38:03;;;;;;;17.85;9.63;;;;;;;4.13;94.74;95345.97;5067824;28;20050;-52
2021/10/30 01:40:39;;;;;;;22.98;10.13;;;;;;;4.16;95.59;95342.66;5069687;28;20123;-56
2021/10/30 01:43:07;;;;;;;12.57;9.07;;;;;;;4.32;95.61;95338.53;5069976;28;20053;-53
2021/10/30 01:45:34;;;;;;;12.18;9.25;;;;;;;4.49;94.48;95337.06;5069880;28;20057;-54
2021/10/30 01:48:02;;;;;;;21.10;9.38;;;;;;;4.75;93.71;95327.25;5060470;28;20417;-50
2021/10/30 01:50:29;;;;;;;25.85;8.60;;;;;;;5.19;91.62;95333.50;5069352;28;20041;-50
2021/10/30 01:52:59;;;;;;;12.82;8.75;;;;;;;5.11;90.50;95331.63;5071202;28;20478;-53
2021/10/30 01:55:35;;;;;;;14.82;8.88;;;;;;;4.69;92.00;95325.78;5068524;28;20047;-54
2021/10/30 01:58:05;;;;;;;25.00;9.10;;;;;;;4.29;93.95;95328.44;5073124;28;20119;-56
2021/10/30 02:00:34;;;;;;;23.77;9.98;;;;;;;4.15;95.03;95317.78;5067763;28;20075;-56
2021/10/30 02:03:01;;;;;;;12.57;10.05;;;;;;;4.36;94.96;95306.56;5074031;28;20056;-56
2021/10/30 02:05:28;;;;;;;13.00;8.85;;;;;;;4.52;94.42;95317.66;5073650;28;20127;-64
2021/10/30 02:07:56;;;;;;;11.45;8.90;;;;;;;4.51;93.93;95300.00;5071011;28;20123;-52
2021/10/30 02:10:24;;;;;;;13.18;8.98;;;;;;;4.84;92.53;95320.03;5064729;28;20041;-56
2021/10/30 02:12:51;;;;;;;12.07;8.38;;;;;;;5.16;90.74;95320.72;5063735;28;20051;-58
2021/10/30 02:15:18;;;;;;;10.20;8.30;;;;;;;5.13;90.36;95321.34;5074155;28;20036;-51
2021/10/30 02:17:45;;;;;;;17.08;9.18;;;;;;;5.36;88.62;95308.59;5072198;28;20557;-57
2021/10/30 02:20:13;;;;;;;25.25;9.45;;;;;;;5.46;87.28;95308.31;5074379;28;20071;-57
2021/10/30 02:22:41;;;;;;;11.60;8.70;;;;;;;5.32;87.13;95302.28;5074015;28;20044;-57
2021/10/30 02:25:10;;;;;;;14.70;8.38;;;;;;;5.47;87.17;95304.53;5073968;28;20385;-53
2021/10/30 02:27:37;;;;;;;10.23;8.07;;;;;;;5.37;86.69;95294.09;5072851;28;20075;-55
2021/10/30 02:30:07;;;;;;;14.82;8.50;;;;;;;5.58;86.53;95295.06;5068872;28;20391;-49
2021/10/30 02:32:36;;;;;;;9.10;7.68;;;;;;;5.68;85.33;95315.41;5053944;28;20056;-53
2021/10/30 02:35:03;;;;;;;10.27;7.75;;;;;;;5.60;84.71;95313.53;5053729;28;20060;-51
2021/10/30 02:37:30;;;;;;;11.88;7.50;;;;;;;5.67;84.79;95318.44;5054153;28;20045;-53
2021/10/30 02:39:57;;;;;;;10.48;7.85;;;;;;;5.85;83.76;95310.06;5059998;28;20041;-50
2021/10/30 02:42:24;;;;;;;14.10;9.35;;;;;;;5.39;85.12;95316.84;5053824;28;20045;-51
2021/10/30 02:44:51;;;;;;;35.85;9.52;;;;;;;4.79;88.15;95312.09;5068975;28;20120;-57
2021/10/30 02:47:18;;;;;;;11.95;8.32;;;;;;;4.61;89.46;95307.78;5073801;28;20044;-57
2021/10/30 02:49:45;;;;;;;19.90;8.95;;;;;;;4.93;88.69;95296.69;5053615;28;20132;-57
2021/10/30 02:52:13;;;;;;;34.70;9.00;;;;;;;5.15;87.90;95298.47;5053623;28;20502;-56
2021/10/30 02:54:39;;;;;;;18.67;10.15;;;;;;;5.51;86.15;95283.22;5058304;28;20400;-54
2021/10/30 02:57:06;;;;;;;11.90;8.73;;;;;;;5.22;86.76;95275.78;5056685;28;20051;-56
2021/10/30 02:59:33;;;;;;;11.05;8.30;;;;;;;5.23;87.28;95291.56;5069018;28;20051;-56
2021/10/30 03:02:00;;;;;;;11.13;7.95;;;;;;;5.26;86.99;95290.91;5084461;22;20071;-50
2021/10/30 03:04:27;;;;;;;18.15;8.60;;;;;;;5.57;86.00;95281.97;5088665;28;20483;-54
2021/10/30 03:06:54;;;;;;;11.50;8.80;;;;;;;5.32;87.05;95280.84;5093210;28;20051;-53
2021/10/30 03:09:21;;;;;;;12.15;8.60;;;;;;;5.07;87.90;95279.69;5090802;28;20469;-49
2021/10/30 03:11:48;;;;;;;15.02;9.23;;;;;;;4.65;90.03;95273.94;5079394;28;20132;-51
2021/10/30 03:14:15;;;;;;;18.00;9.23;;;;;;;4.45;90.97;95275.25;5080548;28;20040;-54
2021/10/30 03:16:42;;;;;;;10.65;8.68;;;;;;;4.48;91.46;95281.88;5093278;28;20051;-51
2021/10/30 03:19:09;;;;;;;9.68;8.30;;;;;;;4.54;91.25;95283.31;5085214;28;20059;-51
2021/10/30 03:21:37;;;;;;;10.68;8.38;;;;;;;4.82;91.05;95282.00;5087143;28;20043;-53
2021/10/30 03:24:04;;;;;;;18.23;8.73;;;;;;;4.98;88.99;95278.91;5092161;28;20068;-49
2021/10/30 03:26:31;;;;;;;9.68;8.07;;;;;;;5.10;88.10;95266.47;5088855;28;20041;-54
2021/10/30 03:28:58;;;;;;;9.80;8.23;;;;;;;5.08;88.48;95267.88;5092038;28;20039;-50
2021/10/30 03:31:25;;;;;;;12.82;7.78;;;;;;;5.04;88.27;95254.31;5077573;28;20149;-51
2021/10/30 03:33:52;;;;;;;10.65;8.75;;;;;;;5.08;88.19;95262.50;5072065;28;20162;-53
2021/10/30 03:36:19;;;;;;;12.75;8.02;;;;;;;5.26;87.05;95252.59;5071698;28;20055;-54
2021/10/30 03:38:46;;;;;;;11.80;8.40;;;;;;;5.31;87.56;95255.91;5074111;28;20055;-47
2021/10/30 03:41:14;;;;;;;13.20;8.20;;;;;;;5.29;86.52;95244.69;5072188;28;20043;-49
2021/10/30 03:43:40;;;;;;;11.27;8.25;;;;;;;5.00;88.06;95236.47;5088005;28;20043;-48
2021/10/30 03:46:07;;;;;;;17.55;8.48;;;;;;;4.45;90.53;95232.38;5075485;28;20050;-47
2021/10/30 03:48:34;;;;;;;12.60;8.63;;;;;;;4.37;91.41;95233.94;5075167;28;20050;-51
2021/10/30 03:51:01;;;;;;;17.48;8.88;;;;;;;4.29;91.29;95232.03;5091495;28;20043;-48
2021/10/30 03:53:28;;;;;;;13.13;9.40;;;;;;;3.85;93.13;95235.59;5088017;28;20066;-46
2021/10/30 03:55:55;;;;;;;31.10;8.85;;;;;;;4.31;92.71;95234.38;5081411;28;20234;-47
2021/10/30 03:58:22;;;;;;;10.15;7.97;;;;;;;4.56;90.50;95228.34;5092469;28;20082;-45
2021/10/30 04:00:53;;;;;;;12.30;8.32;;;;;;;4.28;90.80;95233.13;5079921;28;20045;-50
2021/10/30 04:03:20;;;;;;;11.77;8.68;;;;;;;4.17;92.23;95213.06;5091682;28;20518;-47
2021/10/30 04:05:47;;;;;;;12.77;8.70;;;;;;;4.24;91.76;95216.09;5092102;28;20040;-53
2021/10/30 04:08:19;;;;;;;18.75;8.90;;;;;;;4.07;92.40;95208.00;5072227;28;20444;-50
2021/10/30 04:10:46;;;;;;;17.13;9.18;;;;;;;3.92;93.55;95217.19;5071919;28;20408;-48
2021/10/30 04:13:13;;;;;;;14.43;8.23;;;;;;;3.90;93.62;95217.53;5084291;28;20040;-48
2021/10/30 04:15:40;;;;;;;9.95;7.57;;;;;;;4.11;93.53;95208.94;5091787;28;20036;-46
2021/10/30 04:18:08;;;;;;;12.43;8.13;;;;;;;4.21;92.38;95212.13;5092259;28;20074;-51
2021/10/30 04:20:35;;;;;;;10.63;8.38;;;;;;;4.53;91.59;95214.78;5090300;28;20044;-46
2021/10/30 04:23:02;;;;;;;14.25;9.23;;;;;;;4.71;89.68;95216.38;5091988;28;20052;-52
2021/10/30 04:25:29;;;;;;;12.70;9.07;;;;;;;4.98;87.82;95227.97;5091653;28;20082;-50
2021/10/30 04:27:55;;;;;;;13.25;8.65;;;;;;;5.08;87.27;95238.38;5083436;28;20123;-47
2021/10/30 04:30:22;;;;;;;15.85;9.23;;;;;;;5.06;86.57;95232.53;5083232;28;20047;-51
2021/10/30 04:32:50;;;;;;;11.20;8.20;;;;;;;5.01;87.04;95227.34;5071613;28;20036;-45
2021/10/30 04:35:16;;;;;;;12.02;8.18;;;;;;;5.20;85.61;95219.78;5087108;28;20044;-54
2021/10/30 04:37:43;;;;;;;15.23;8.60;;;;;;;5.27;85.38;95225.47;5091787;28;20126;-48
2021/10/30 04:40:15;;;;;;;11.60;8.23;;;;;;;5.09;85.28;95210.47;5073506;28;20071;-49
2021/10/30 04:42:42;;;;;;;14.60;8.88;;;;;;;5.26;85.23;95199.72;5077269;28;20105;-46
2021/10/30 04:45:09;;;;;;;13.57;9.65;;;;;;;5.03;86.73;95184.91;5090713;28;20515;-49
2021/10/30 04:47:36;;;;;;;12.68;9.73;;;;;;;5.22;85.56;95177.34;5088756;28;20115;-47
2021/10/30 04:50:04;;;;;;;17.10;8.95;;;;;;;5.25;84.81;95178.59;5071728;28;20053;-49
2021/10/30 04:52:31;;;;;;;15.20;9.27;;;;;;;5.10;85.19;95177.19;5075537;28;20982;-51
2021/10/30 04:54:58;;;;;;;13.15;9.75;;;;;;;4.80;86.96;95168.19;5090702;28;20484;-46
2021/10/30 04:57:25;;;;;;;30.77;9.07;;;;;;;4.81;88.17;95169.75;5091219;28;20079;-47
2021/10/30 04:59:52;;;;;;;16.35;8.45;;;;;;;4.92;86.26;95169.13;5090135;28;20044;-46
2021/10/30 05:02:19;;;;;;;13.10;8.90;;;;;;;4.86;86.28;95170.38;5073429;28;20430;-49
2021/10/30 05:04:46;;;;;;;13.70;9.25;;;;;;;5.00;85.83;95167.56;5090607;28;20046;-49
2021/10/30 05:07:13;;;;;;;34.33;8.40;;;;;;;4.83;84.46;95178.28;5091341;28;20105;-50
2021/10/30 05:09:40;;;;;;;25.92;7.97;;;;;;;5.06;84.21;95168.19;5071440;28;20136;-49
2021/10/30 05:12:08;;;;;;;12.95;8.35;;;;;;;5.07;83.83;95167.88;5071195;28;20047;-47
2021/10/30 05:14:35;;;;;;;13.25;8.25;;;;;;;4.82;84.26;95164.09;5070488;28;20043;-49
2021/10/30 05:17:02;;;;;;;15.10;8.27;;;;;;;4.02;87.88;95159.94;5071266;28;20083;-48
2021/10/30 05:19:29;;;;;;;14.85;8.48;;;;;;;3.59;90.77;95155.19;5071098;28;20040;-46
2021/10/30 05:21:56;;;;;;;10.77;7.88;;;;;;;3.38;91.79;95147.69;5075349;28;20127;-52
2021/10/30 05:24:23;;;;;;;10.98;7.63;;;;;;;3.60;91.92;95140.69;5090497;28;20416;-47
2021/10/30 05:26:50;;;;;;;9.07;7.03;;;;;;;3.74;91.56;95131.50;5081960;28;20143;-46
2021/10/30 05:29:17;;;;;;;11.05;8.27;;;;;;;3.95;90.50;95137.09;5089758;28;20071;-51
2021/10/30 05:31:44;;;;;;;15.18;7.65;;;;;;;4.30;89.07;95137.19;5086697;28;20068;-45
2021/10/30 05:34:11;;;;;;;16.80;7.60;;;;;;;4.51;86.79;95133.94;5086996;28;20091;-47
2021/10/30 05:37:04;;;;;;;12.53;7.90;;;;;;;4.65;85.96;95135.38;5084426;28;20083;-46
2021/10/30 05:39:41;;;;;;;14.13;8.05;;;;;;;4.89;84.56;95137.59;5090235;28;20046;-49
2021/10/30 05:42:11;;;;;;;14.82;7.50;;;;;;;4.88;84.00;95141.38;5083537;28;20075;-53
2021/10/30 05:44:38;;;;;;;22.17;8.32;;;;;;;5.15;82.73;95128.75;5092497;28;20090;-46
2021/10/30 05:47:08;;;;;;;11.65;7.25;;;;;;;5.05;82.38;95126.41;5095258;28;20050;-50
2021/10/30 05:49:38;;;;;;;33.75;7.75;;;;;;;5.15;82.15;95121.50;5082737;28;20048;-46
2021/10/30 05:52:07;;;;;;;12.82;7.78;;;;;;;5.00;82.30;95123.88;5094680;28;20481;-47
2021/10/30 05:54:35;;;;;;;8.30;6.50;;;;;;;4.68;83.31;95112.53;5094142;28;20066;-49
2021/10/30 05:57:02;;;;;;;15.30;7.03;;;;;;;5.08;81.74;95110.47;5088474;28;20524;-50
2021/10/30 05:59:30;;;;;;;12.85;6.90;;;;;;;4.36;84.73;95109.19;5074490;28;20045;-49
2021/10/30 06:01:57;;;;;;;8.13;6.63;;;;;;;4.65;83.95;95111.28;5092504;28;20580;-48
2021/10/30 06:04:24;;;;;;;8.63;6.60;;;;;;;4.83;83.79;95119.31;5085182;28;20039;-53
2021/10/30 06:06:51;;;;;;;12.02;6.55;;;;;;;4.85;83.04;95115.22;5090775;28;20036;-50
2021/10/30 06:09:18;;;;;;;9.65;6.88;;;;;;;4.39;84.76;95119.28;5080513;28;20127;-51
2021/10/30 06:11:45;;;;;;;18.25;8.32;;;;;;;4.80;83.49;95107.31;5087238;28;20066;-49
2021/10/30 06:14:12;;;;;;;11.95;7.38;;;;;;;4.79;82.85;95103.06;5087703;28;20047;-53
2021/10/30 06:16:39;;;;;;;13.55;7.60;;;;;;;4.74;82.73;95100.53;5084528;28;20123;-48
2021/10/30 06:19:05;;;;;;;9.13;7.00;;;;;;;4.76;82.38;95098.34;5092397;28;20068;-54
2021/10/30 06:21:32;;;;;;;9.52;7.20;;;;;;;4.52;82.71;95100.66;5086655;28;20036;-53
2021/10/30 06:23:59;;;;;;;12.50;6.90;;;;;;;4.84;82.56;95092.22;5093526;28;20040;-48
2021/10/30 06:26:27;;;;;;;12.32;6.85;;;;;;;4.58;81.87;95075.31;5092403;28;20028;-50
2021/10/30 06:28:55;;;;;;;19.15;7.10;;;;;;;4.34;83.13;95068.53;5092595;28;20032;-52
2021/10/30 06:31:23;;;;;;;8.90;7.10;;;;;;;4.32;82.85;95070.75;5091260;28;20086;-52
2021/10/30 06:33:50;;;;;;;13.23;7.63;;;;;;;4.51;81.49;95072.31;5105069;28;20556;-51
2021/10/30 06:36:17;;;;;;;11.05;7.47;;;;;;;4.50;82.15;95068.84;5089793;28;20519;-53
2021/10/30 06:38:44;;;;;;;10.02;7.40;;;;;;;4.64;81.67;95064.13;5088483;28;20067;-52
2021/10/30 06:41:15;;;;;;;11.43;7.57;;;;;;;4.74;80.99;95063.03;5088083;28;20520;-52
2021/10/30 06:44:00;;;;;;;8.98;7.20;;;;;;;4.32;81.28;95061.91;5088647;28;20063;-51
2021/10/30 06:46:27;;;;;;;9.52;7.18;;;;;;;4.56;81.12;95072.19;5088215;28;20382;-52
2021/10/30 06:48:56;;;;;;;10.43;6.68;;;;;;;3.90;81.68;95069.53;5091545;28;20580;-51
2021/10/30 06:51:24;;;;;;;10.38;7.18;;;;;;;3.75;83.93;95073.44;5093896;28;20055;-53
2021/10/30 06:53:51;;;;;;;10.98;6.93;;;;;;;4.17;82.27;95082.69;5093174;28;20043;-51
2021/10/30 06:56:19;;;;;;;8.52;6.57;;;;;;;4.09;81.23;95085.31;5075594;28;20043;-54
2021/10/30 06:58:46;;;;;;;8.75;6.82;;;;;;;3.80;81.43;95078.63;5078045;28;20058;-54
2021/10/30 07:01:15;;;;;;;8.82;6.68;;;;;;;3.22;84.42;95069.72;5083400;28;20207;-50
2021/10/30 07:03:43;;;;;;;9.48;7.03;;;;;;;3.00;85.71;95075.09;5092884;28;20090;-51
2021/10/30 07:06:11;;;;;;;10.13;6.70;;;;;;;3.48;85.32;95061.84;5093117;28;20075;-50
2021/10/30 07:08:38;;;;;;;10.50;6.68;;;;;;;3.67;82.98;95066.13;5091776;28;20036;-50
2021/10/30 07:11:05;;;;;;;10.85;6.30;;;;;;;3.80;82.48;95059.09;5091689;28;20143;-54
2021/10/30 07:13:32;;;;;;;7.95;6.45;;;;;;;4.06;82.31;95059.19;5092691;28;20055;-53
2021/10/30 07:15:59;;;;;;;8.70;6.80;;;;;;;3.91;82.95;95063.09;5093051;28;20128;-48
2021/10/30 07:18:26;;;;;;;8.95;7.30;;;;;;;3.30;84.21;95064.72;5092637;28;20648;-46
2021/10/30 07:20:53;;;;;;;9.32;6.18;;;;;;;2.99;85.62;95055.59;5091335;28;20072;-52
2021/10/30 07:23:21;;;;;;;8.35;6.47;;;;;;;3.15;85.95;95064.03;5092349;28;20052;-52
2021/10/30 07:25:48;;;;;;;8.70;6.60;;;;;;;3.31;85.57;95055.59;5092838;28;20044;-46
2021/10/30 07:28:15;;;;;;;15.73;6.70;;;;;;;3.47;84.11;95057.56;5084463;28;20145;-47
2021/10/30 07:30:43;;;;;;;8.55;6.75;;;;;;;3.68;83.60;95062.38;5083871;28;20036;-46
2021/10/30 07:33:10;;;;;;;10.23;6.97;;;;;;;3.74;81.53;95063.84;5092192;28;20044;-48
2021/10/30 07:35:41;;;;;;;11.80;6.55;;;;;;;3.74;83.04;95063.84;5092952;28;20043;-45
2021/10/30 07:38:07;;;;;;;9.75;7.43;;;;;;;4.02;82.01;95055.56;5092911;28;20048;-50
2021/10/30 07:40:35;;;;;;;9.98;7.40;;;;;;;4.12;82.11;95044.53;5082240;28;20044;-45
2021/10/30 07:43:02;;;;;;;8.60;6.72;;;;;;;3.84;82.96;95050.16;5072247;28;20390;-51
2021/10/30 07:45:30;;;;;;;9.43;7.03;;;;;;;3.82;83.43;95051.56;5085262;28;20044;-46
2021/10/30 07:47:58;;;;;;;8.50;6.85;;;;;;;3.99;83.21;95056.97;5091677;28;20059;-46
2021/10/30 07:50:27;;;;;;;10.60;7.40;;;;;;;4.50;80.09;95054.69;5078268;28;20044;-45
2021/10/30 07:52:54;;;;;;;8.75;6.97;;;;;;;4.55;79.66;95047.28;5074303;28;20072;-49
2021/10/30 07:55:23;;;;;;;9.35;7.15;;;;;;;4.40;81.01;95039.72;5090260;28;20135;-46
2021/10/30 07:57:50;;;;;;;8.57;6.80;;;;;;;4.18;81.29;95045.97;5092031;28;20044;-47
2021/10/30 08:00:17;;;;;;;8.93;7.28;;;;;;;3.81;83.75;95037.41;5083060;28;20497;-46
2021/10/30 08:02:44;;;;;;;9.73;7.20;;;;;;;3.91;83.93;95031.75;5086487;28;20050;-45
2021/10/30 08:05:12;;;;;;;8.38;6.95;;;;;;;4.04;84.54;95018.56;5091229;28;20064;-47
2021/10/30 08:07:42;;;;;;;8.80;7.28;;;;;;;4.16;84.79;95022.22;5091038;28;20047;-47
2021/10/30 08:10:14;;;;;;;9.98;7.55;;;;;;;4.19;84.34;95026.13;5080380;28;20036;-48
2021/10/30 08:12:41;;;;;;;9.65;7.28;;;;;;;4.34;83.63;95028.34;5089592;28;20086;-50
2021/10/30 08:15:08;;;;;;;10.13;7.22;;;;;;;4.47;83.47;95013.25;5088420;28;20040;-46
2021/10/30 08:17:35;;;;;;;8.27;6.65;;;;;;;4.33;82.51;95016.06;5087794;28;20040;-46
2021/10/30 08:20:03;;;;;;;14.55;9.05;;;;;;;4.43;82.60;95020.34;5092474;28;20039;-46
2021/10/30 08:22:31;;;;;;;9.23;7.32;;;;;;;4.40;83.87;95023.63;5091319;28;20486;-47
2021/10/30 08:24:59;;;;;;;10.35;6.70;;;;;;;4.47;83.85;95010.56;5085298;28;20050;-46
2021/10/30 08:27:26;;;;;;;8.65;7.10;;;;;;;4.57;83.06;95001.41;5090491;28;20119;-46
2021/10/30 08:29:54;;;;;;;11.55;7.60;;;;;;;4.76;82.90;94993.81;5088227;28;20052;-52
2021/10/30 08:32:21;;;;;;;9.95;7.75;;;;;;;4.68;82.50;94991.97;5087955;28;20142;-51
2021/10/30 08:34:48;;;;;;;11.88;7.68;;;;;;;4.63;83.49;94986.75;5090313;28;20058;-52
2021/10/30 08:37:14;;;;;;;9.18;7.50;;;;;;;4.89;82.44;94984.81;5091654;28;20100;-47
2021/10/30 08:39:41;;;;;;;10.30;7.60;;;;;;;4.96;81.70;94986.22;5086619;28;20158;-47
2021/10/30 08:42:09;;;;;;;9.00;7.07;;;;;;;4.91;81.24;94969.22;5083120;28;20041;-48
2021/10/30 08:44:38;;;;;;;10.65;7.15;;;;;;;4.63;82.79;94974.16;5086011;28;20139;-49
2021/10/30 08:47:06;;;;;;;10.23;7.40;;;;;;;4.52;83.50;94974.78;5090307;28;20123;-47
2021/10/30 08:49:37;;;;;;;8.30;6.93;;;;;;;4.59;83.73;94951.78;5080881;28;20048;-48
2021/10/30 08:52:06;;;;;;;8.00;6.72;;;;;;;4.57;82.88;94955.88;5090494;28;20461;-51
2021/10/30 08:54:34;;;;;;;9.60;7.55;;;;;;;4.75;82.79;94949.38;5090552;28;20505;-47
2021/10/30 08:57:02;;;;;;;7.28;6.15;;;;;;;4.77;83.34;94947.16;5083175;28;20041;-48
2021/10/30 08:59:46;;;;;;;9.43;6.88;;;;;;;4.89;82.99;94947.28;5077858;28;20040;-50
2021/10/30 09:02:29;;;;;;;7.68;6.50;;;;;;;4.84;82.50;94938.63;5110805;22;20063;-48
2021/10/30 09:05:14;;;;;;;8.70;6.47;;;;;;;4.87;82.98;94938.78;5092668;28;20389;-54
2021/10/30 09:07:43;;;;;;;7.68;5.65;;;;;;;5.00;83.27;94925.50;5111312;28;20504;-54
2021/10/30 09:10:19;;;;;;;9.40;7.25;;;;;;;5.01;83.35;94938.59;5103500;28;20488;-52
2021/10/30 09:12:53;;;;;;;8.07;6.90;;;;;;;5.05;82.68;94933.38;5091080;28;20097;-55
2021/10/30 09:15:47;;;;;;;8.68;6.82;;;;;;;5.42;81.75;94928.31;5102147;28;20032;-56
2021/10/30 09:18:36;;;;;;;10.20;7.70;;;;;;;5.33;82.54;94931.03;5092462;28;20039;-53
2021/10/30 09:21:03;;;;;;;8.48;6.60;;;;;;;5.79;80.75;94940.13;5091297;28;20046;-50
2021/10/30 09:23:30;;;;;;;8.55;6.47;;;;;;;5.62;81.27;94936.44;5103605;28;20130;-51
2021/10/30 09:26:06;;;;;;;8.38;6.68;;;;;;;5.88;80.32;94948.88;5106711;28;20119;-54
2021/10/30 09:28:37;;;;;;;8.63;7.03;;;;;;;5.84;79.58;94938.00;5089464;28;20044;-53
2021/10/30 09:31:09;;;;;;;8.60;6.43;;;;;;;5.86;80.83;94935.78;5100179;28;20052;-53
2021/10/30 09:33:52;;;;;;;8.03;6.47;;;;;;;5.86;81.39;94930.44;5110413;28;20126;-50
2021/10/30 09:36:21;;;;;;;8.30;5.88;;;;;;;5.86;81.01;94930.44;5105933;28;20329;-54
2021/10/30 09:38:59;;;;;;;8.40;6.68;;;;;;;5.90;81.38;94924.41;5093174;28;20066;-49
2021/10/30 09:41:35;;;;;;;7.57;6.22;;;;;;;5.98;80.56;94913.66;5093397;28;20443;-54
2021/10/30 09:44:07;;;;;;;9.40;6.53;;;;;;;6.37;78.74;94913.47;5090196;28;20052;-46
2021/10/30 09:46:58;;;;;;;8.07;6.27;;;;;;;6.27;79.43;94904.72;5090422;28;20040;-52
2021/10/30 09:49:27;;;;;;;10.05;6.63;;;;;;;6.47;78.79;94911.19;5095531;28;20291;-46
2021/10/30 09:52:10;;;;;;;9.15;6.60;;;;;;;6.44;79.79;94922.59;5101594;28;20074;-47
2021/10/30 09:54:45;;;;;;;7.53;5.97;;;;;;;6.50;79.67;94923.94;5090745;28;20071;-47
2021/10/30 09:57:26;;;;;;;7.45;6.30;;;;;;;6.67;78.64;94914.16;5089922;28;20072;-50
2021/10/30 09:59:59;;;;;;;9.07;6.60;;;;;;;6.93;77.61;94905.81;5098230;28;20119;-52
2021/10/30 10:02:28;;;;;;;10.55;6.90;;;;;;;7.24;75.37;94907.97;5090822;28;20147;-51
2021/10/30 10:04:59;;;;;;;9.65;7.60;;;;;;;7.19;77.08;94898.22;5090178;28;20078;-55
2021/10/30 10:07:28;;;;;;;10.65;7.70;;;;;;;7.15;77.60;94908.09;5089085;28;20040;-51
2021/10/30 10:09:57;;;;;;;6.97;6.07;;;;;;;7.17;77.26;94903.13;5090647;28;20048;-51
2021/10/30 10:12:25;;;;;;;10.18;7.25;;;;;;;7.48;76.74;94893.75;5088499;28;20133;-54
2021/10/30 10:14:53;;;;;;;7.72;6.40;;;;;;;7.54;77.00;94903.16;5101069;28;20048;-49
2021/10/30 10:17:20;;;;;;;10.10;6.78;;;;;;;7.58;76.67;94903.25;5112215;28;20054;-50
2021/10/30 10:19:49;;;;;;;7.28;5.95;;;;;;;7.57;77.13;94907.88;5101327;28;20054;-55
2021/10/30 10:22:16;;;;;;;7.80;6.07;;;;;;;7.63;76.39;94895.72;5112207;28;20062;-56
2021/10/30 10:24:43;;;;;;;7.53;6.28;;;;;;;7.70;75.43;94895.97;5093194;28;20036;-52
2021/10/30 10:27:10;;;;;;;8.10;6.60;;;;;;;7.85;74.48;94901.75;5103380;28;20135;-56
2021/10/30 10:29:54;;;;;;;8.65;6.38;;;;;;;7.99;74.95;94896.00;5093162;28;20178;-54
2021/10/30 10:32:23;;;;;;;11.18;7.03;;;;;;;8.11;75.98;94885.97;5094053;28;20059;-56
2021/10/30 10:34:50;;;;;;;8.13;6.28;;;;;;;8.34;74.57;94888.16;5111861;28;20039;-47
2021/10/30 10:37:22;;;;;;;8.18;6.60;;;;;;;8.52;74.54;94884.06;5109085;28;20072;-48
2021/10/30 10:39:54;;;;;;;7.75;6.65;;;;;;;8.68;75.33;94878.72;5110293;28;20162;-49
2021/10/30 10:42:34;;;;;;;8.48;7.28;;;;;;;8.86;72.82;94865.66;5108732;28;20048;-51
2021/10/30 10:45:13;;;;;;;10.10;7.38;;;;;;;9.01;73.07;94848.72;5097476;28;20131;-49
2021/10/30 10:47:41;;;;;;;10.70;6.85;;;;;;;9.23;71.57;94854.59;5097145;28;20075;-51
2021/10/30 10:50:28;;;;;;;9.48;7.00;;;;;;;9.47;72.50;94853.63;5105461;28;20036;-54
2021/10/30 10:53:05;;;;;;;7.88;6.28;;;;;;;9.69;71.15;94849.50;5093705;28;20408;-49
2021/10/30 10:55:36;;;;;;;10.02;6.47;;;;;;;9.99;71.52;94842.44;5096519;28;20063;-48
2021/10/30 10:58:08;;;;;;;8.25;5.97;;;;;;;10.20;69.30;94844.00;5101462;28;20395;-48
2021/10/30 11:00:36;;;;;;;8.00;6.20;;;;;;;10.34;68.84;94841.59;5105557;28;20040;-49
2021/10/30 11:03:03;;;;;;;8.25;5.90;;;;;;;10.46;70.46;94843.34;5093269;28;20130;-54
2021/10/30 11:05:32;;;;;;;8.20;6.05;;;;;;;10.57;70.96;94832.75;5099327;28;20078;-53
2021/10/30 11:08:30;;;;;;;11.15;6.53;;;;;;;10.69;69.00;94827.97;5121213;27;20063;-56
2021/10/30 11:11:17;;;;;;;9.17;6.13;;;;;;;10.91;69.38;94828.31;5106615;28;20067;-55
2021/10/30 11:14:01;;;;;;;8.32;6.45;;;;;;;10.95;70.89;94815.63;5091986;28;20323;-55
2021/10/30 11:16:45;;;;;;;9.02;6.22;;;;;;;11.12;69.14;94806.25;5091680;28;20040;-51
2021/10/30 11:19:37;;;;;;;7.07;6.25;;;;;;;11.15;71.13;94805.53;5093215;28;20067;-51
2021/10/30 11:22:13;;;;;;;9.05;6.78;;;;;;;11.40;70.09;94801.25;5103188;28;20115;-54
2021/10/30 11:25:00;;;;;;;7.90;6.35;;;;;;;11.58;69.21;94804.22;5094762;28;20078;-52
2021/10/30 11:27:27;;;;;;;11.68;6.00;;;;;;;11.62;69.66;94802.34;5093995;28;20044;-50
2021/10/30 11:29:55;;;;;;;7.47;6.50;;;;;;;11.73;67.16;94812.53;5094597;28;20523;-49
2021/10/30 11:32:22;;;;;;;8.07;6.57;;;;;;;11.60;66.95;94823.63;5110627;28;20070;-51
2021/10/30 11:34:57;;;;;;;8.77;6.60;;;;;;;11.53;69.13;94817.28;5108464;28;20095;-49
2021/10/30 11:37:25;;;;;;;8.45;5.80;;;;;;;11.54;70.17;94808.03;5094934;28;20044;-47
2021/10/30 11:39:52;;;;;;;8.63;6.13;;;;;;;11.61;69.93;94808.13;5108429;28;20047;-47
2021/10/30 11:42:20;;;;;;;8.85;6.80;;;;;;;11.61;68.48;94797.31;5095402;28;20044;-50
2021/10/30 11:44:51;;;;;;;8.23;6.80;;;;;;;11.72;68.95;94803.63;5107650;28;20346;-51
2021/10/30 11:47:29;;;;;;;9.73;6.72;;;;;;;11.87;68.71;94808.13;5091355;28;20052;-51